Time;durP1;ratioP1;P1;durP2;ratioP2;P2;SDS_P1;SDS_P2;PMS_P1;PMS_P2;Temp;Humidity;BMP_temperature;BMP_pressure;BME280_temperature;BME280_humidity;BME280_pressure;Samples;Min_cycle;Max_cycle;Signal;HPM_P1;HPM_P2
2022/01/31 00:02:18;;;;;;;15.33;3.27;;;1.50;99.90;;;;;;4943590;29;20245;-76
2022/01/31 00:04:43;;;;;;;12.23;3.00;;;1.50;99.90;;;;;;4946953;29;20187;-77
2022/01/31 00:07:10;;;;;;;20.23;4.10;;;1.50;99.90;;;;;;4955404;29;20664;-76
2022/01/31 00:09:36;;;;;;;14.70;3.40;;;1.50;99.90;;;;;;4955247;28;20221;-76
2022/01/31 00:12:07;;;;;;;9.90;3.97;;;1.50;99.90;;;;;;4954336;28;20426;-77
2022/01/31 00:14:42;;;;;;;13.43;3.10;;;1.40;99.90;;;;;;4953999;28;20450;-76
2022/01/31 00:17:10;;;;;;;14.23;4.33;;;1.40;99.90;;;;;;4954679;29;20387;-76
2022/01/31 00:19:36;;;;;;;12.63;3.60;;;1.30;99.90;;;;;;4954730;28;20391;-76
2022/01/31 00:22:04;;;;;;;12.30;3.57;;;1.30;99.90;;;;;;4954820;28;20424;-76
2022/01/31 00:24:29;;;;;;;9.57;3.70;;;1.30;99.90;;;;;;4954801;28;20924;-76
2022/01/31 00:26:55;;;;;;;9.63;3.67;;;1.30;99.90;;;;;;4954701;29;20503;-76
2022/01/31 00:29:20;;;;;;;6.47;3.77;;;1.30;99.90;;;;;;4954818;29;20187;-76
2022/01/31 00:31:46;;;;;;;10.47;2.90;;;1.30;99.90;;;;;;4954501;29;20274;-74
2022/01/31 00:34:11;;;;;;;7.90;2.83;;;1.30;99.90;;;;;;4954403;29;20236;-74
2022/01/31 00:36:37;;;;;;;5.40;2.53;;;1.30;99.90;;;;;;4954652;29;20268;-74
2022/01/31 00:39:04;;;;;;;8.40;3.07;;;1.20;99.90;;;;;;4954520;29;20177;-74
2022/01/31 00:41:29;;;;;;;11.47;4.67;;;1.20;99.90;;;;;;4954020;28;20213;-73
2022/01/31 00:44:00;;;;;;;8.60;2.60;;;1.20;99.90;;;;;;4954325;29;20432;-74
2022/01/31 00:46:33;;;;;;;8.23;2.70;;;1.20;99.90;;;;;;4954493;28;20186;-74
2022/01/31 00:48:59;;;;;;;8.20;3.20;;;1.20;99.90;;;;;;4954220;28;20439;-71
2022/01/31 00:51:24;;;;;;;7.43;3.60;;;1.20;99.90;;;;;;4954392;28;20442;-74
2022/01/31 00:53:50;;;;;;;6.50;3.00;;;1.20;99.90;;;;;;4954001;29;20291;-74
2022/01/31 00:56:15;;;;;;;12.20;2.33;;;1.30;99.90;;;;;;4954254;29;20251;-73
2022/01/31 00:58:41;;;;;;;11.93;2.97;;;1.20;99.90;;;;;;4954224;29;20177;-73
2022/01/31 05:31:01;;;;;;;7.90;2.63;;;3.90;99.90;;;;;;5905843;23;20995;-71
2022/01/31 05:33:27;;;;;;;5.53;2.50;;;4.00;99.90;;;;;;4988442;28;20564;-73
2022/01/31 05:35:53;;;;;;;6.30;2.40;;;4.10;99.90;;;;;;4982661;28;20557;-73
2022/01/31 05:38:18;;;;;;;6.60;1.90;;;4.10;99.90;;;;;;4992313;28;20451;-74
2022/01/31 05:40:44;;;;;;;7.20;2.60;;;4.20;99.90;;;;;;4992161;28;20207;-74
2022/01/31 05:43:09;;;;;;;6.30;3.03;;;4.20;99.90;;;;;;4991830;28;20589;-74
2022/01/31 05:45:35;;;;;;;10.97;2.80;;;4.20;99.90;;;;;;4992095;28;20186;-73
2022/01/31 05:48:00;;;;;;;7.90;2.67;;;4.30;99.90;;;;;;4991994;28;20282;-74
2022/01/31 05:50:26;;;;;;;7.10;2.70;;;4.40;99.90;;;;;;4992105;28;20855;-70
2022/01/31 05:52:52;;;;;;;8.23;2.80;;;4.50;99.90;;;;;;4991996;28;20270;-72
2022/01/31 05:55:17;;;;;;;8.97;4.10;;;4.60;99.90;;;;;;4991974;28;20711;-73
2022/01/31 05:57:43;;;;;;;7.00;3.53;;;4.60;99.90;;;;;;4992180;28;20214;-73
2022/01/31 06:00:09;;;;;;;11.03;3.60;;;4.60;99.90;;;;;;4991822;28;20719;-72
2022/01/31 06:02:39;;;;;;;6.80;2.70;;;4.70;99.90;;;;;;4991535;28;20660;-73
2022/01/31 06:05:05;;;;;;;10.40;2.97;;;4.70;99.90;;;;;;4990495;28;20468;-73
2022/01/31 06:07:31;;;;;;;7.70;2.63;;;4.70;99.90;;;;;;4991974;28;20740;-74
2022/01/31 06:09:56;;;;;;;9.43;2.80;;;4.70;99.90;;;;;;4991751;28;20480;-73
2022/01/31 06:12:22;;;;;;;5.63;2.33;;;4.70;99.90;;;;;;4991758;28;20212;-73
2022/01/31 06:14:48;;;;;;;7.63;2.97;;;4.80;99.90;;;;;;4990577;28;20204;-73
2022/01/31 06:17:13;;;;;;;9.70;2.90;;;4.80;99.90;;;;;;4991551;28;20419;-73
2022/01/31 06:19:39;;;;;;;14.53;3.17;;;4.80;99.90;;;;;;4991805;28;20678;-72
2022/01/31 06:22:05;;;;;;;6.20;2.80;;;4.80;99.90;;;;;;4992358;28;20211;-74
2022/01/31 06:24:30;;;;;;;17.67;4.50;;;4.80;99.90;;;;;;4995598;28;20741;-74
2022/01/31 06:26:58;;;;;;;9.83;3.77;;;4.70;99.90;;;;;;4995594;28;20246;-73
2022/01/31 06:29:23;;;;;;;9.20;4.30;;;4.70;99.90;;;;;;4994949;28;20275;-73
2022/01/31 06:31:49;;;;;;;16.30;4.17;;;4.60;99.90;;;;;;4994292;28;20966;-73
2022/01/31 06:34:14;;;;;;;14.57;4.63;;;4.50;99.90;;;;;;4995024;28;20271;-73
2022/01/31 06:36:40;;;;;;;12.10;6.37;;;4.50;99.90;;;;;;4995702;28;20200;-73
2022/01/31 06:39:06;;;;;;;8.37;3.60;;;4.40;99.90;;;;;;4995245;28;20268;-73
2022/01/31 06:41:31;;;;;;;7.07;3.83;;;4.30;99.90;;;;;;4995488;28;20189;-74
2022/01/31 06:43:57;;;;;;;16.90;6.27;;;4.30;99.90;;;;;;4995270;28;20207;-73
2022/01/31 06:46:22;;;;;;;8.60;4.07;;;4.20;99.90;;;;;;4995257;28;20582;-73
2022/01/31 06:48:48;;;;;;;6.77;3.93;;;4.20;99.90;;;;;;4995384;28;20235;-73
2022/01/31 06:51:14;;;;;;;11.63;3.60;;;4.20;99.90;;;;;;4995093;28;20206;-72
2022/01/31 06:53:41;;;;;;;11.63;4.27;;;4.10;99.90;;;;;;4991675;28;20560;-72
2022/01/31 06:56:07;;;;;;;12.47;4.00;;;4.10;99.90;;;;;;4995367;28;20412;-73
2022/01/31 06:58:32;;;;;;;9.83;4.27;;;4.10;99.90;;;;;;4993637;28;20424;-72
2022/01/31 07:00:58;;;;;;;5.50;2.83;;;4.00;99.90;;;;;;4994737;28;20219;-73
2022/01/31 07:03:24;;;;;;;7.80;3.77;;;4.00;99.90;;;;;;4994687;28;20180;-73
2022/01/31 07:05:50;;;;;;;10.50;4.20;;;4.10;99.90;;;;;;4995154;28;20416;-73
2022/01/31 07:08:16;;;;;;;16.20;4.10;;;4.10;99.90;;;;;;4994680;28;20195;-74
2022/01/31 07:10:50;;;;;;;10.33;3.80;;;4.00;99.90;;;;;;4994647;28;20572;-74
2022/01/31 07:13:37;;;;;;;5.57;2.73;;;4.00;99.90;;;;;;4994029;28;20424;-74
2022/01/31 07:16:04;;;;;;;11.33;3.83;;;4.00;99.90;;;;;;4994787;28;20885;-73
2022/01/31 07:18:30;;;;;;;13.03;4.33;;;4.00;99.90;;;;;;4994828;28;20447;-72
2022/01/31 07:20:56;;;;;;;11.57;3.90;;;4.00;99.90;;;;;;4994582;28;20434;-74
2022/01/31 07:23:38;;;;;;;6.73;3.57;;;3.90;99.90;;;;;;4993809;28;21002;-73
2022/01/31 07:26:04;;;;;;;13.30;4.53;;;3.90;99.90;;;;;;4994796;28;20175;-74
2022/01/31 07:28:30;;;;;;;5.87;2.87;;;3.90;99.90;;;;;;4994567;28;20758;-72
2022/01/31 07:30:57;;;;;;;10.10;3.27;;;3.90;99.90;;;;;;4994306;28;20440;-72
2022/01/31 07:33:23;;;;;;;10.03;3.03;;;3.90;99.90;;;;;;4993033;28;20294;-72
2022/01/31 07:35:49;;;;;;;13.17;4.30;;;3.90;99.90;;;;;;4994559;28;20386;-73
2022/01/31 07:38:16;;;;;;;7.13;2.70;;;3.90;99.90;;;;;;4994444;28;20424;-73
2022/01/31 07:40:41;;;;;;;2.27;2.07;;;3.90;99.90;;;;;;4994376;28;20766;-72
2022/01/31 07:43:07;;;;;;;6.17;2.50;;;3.90;99.90;;;;;;4993801;28;20401;-73
2022/01/31 07:45:33;;;;;;;8.37;5.00;;;3.80;99.90;;;;;;4994529;28;20180;-73
2022/01/31 07:47:59;;;;;;;6.50;2.60;;;3.90;99.90;;;;;;4994170;28;20528;-73
2022/01/31 07:50:25;;;;;;;2.60;1.60;;;3.90;99.90;;;;;;4994219;28;20386;-72
2022/01/31 07:52:51;;;;;;;6.50;1.83;;;3.90;99.90;;;;;;4994765;28;20872;-72
2022/01/31 07:55:17;;;;;;;3.50;2.00;;;3.90;99.90;;;;;;4993752;28;20472;-72
2022/01/31 07:57:45;;;;;;;1.93;1.40;;;3.90;99.90;;;;;;4994164;28;20183;-74
2022/01/31 08:00:11;;;;;;;3.60;1.80;;;3.90;99.90;;;;;;4993490;28;20450;-73
2022/01/31 08:02:37;;;;;;;1.67;1.33;;;3.90;99.90;;;;;;4993420;28;20413;-72
2022/01/31 08:05:03;;;;;;;3.17;1.53;;;3.90;99.90;;;;;;4993152;28;20903;-72
2022/01/31 08:07:28;;;;;;;1.37;1.20;;;4.00;99.90;;;;;;4993706;28;20282;-73
2022/01/31 08:09:54;;;;;;;3.13;1.20;;;4.00;99.90;;;;;;4993893;28;20186;-74
2022/01/31 08:12:19;;;;;;;1.20;1.10;;;4.00;99.90;;;;;;4993243;28;20635;-74
2022/01/31 08:14:46;;;;;;;1.50;1.00;;;4.00;99.90;;;;;;4993132;28;20596;-73
2022/01/31 08:17:12;;;;;;;2.97;1.50;;;4.00;99.90;;;;;;4993200;28;20171;-72
2022/01/31 08:19:37;;;;;;;3.10;0.87;;;4.10;99.90;;;;;;4993703;28;20425;-73
2022/01/31 08:22:03;;;;;;;0.70;0.70;;;4.10;99.90;;;;;;4993268;28;20202;-72
2022/01/31 08:24:28;;;;;;;2.63;0.87;;;4.10;99.90;;;;;;4992834;28;20250;-73
2022/01/31 08:26:54;;;;;;;0.90;0.80;;;4.10;99.90;;;;;;4993736;28;20258;-73
2022/01/31 08:29:29;;;;;;;0.90;0.90;;;4.10;99.90;;;;;;4993177;28;20753;-73
2022/01/31 08:31:57;;;;;;;2.10;0.63;;;4.20;99.90;;;;;;4972892;28;20226;-74
2022/01/31 08:35:47;;;;;;;1.80;0.77;;;4.20;99.90;;;;;;4970742;28;21316;-73
2022/01/31 08:37:13;;;;;;;1.67;0.80;;;4.20;99.90;;;;;;4968863;28;20410;-72
2022/01/31 08:39:39;;;;;;;0.67;0.67;;;4.30;99.90;;;;;;4973511;28;20959;-72
2022/01/31 08:42:04;;;;;;;1.17;0.80;;;4.30;99.90;;;;;;4973300;28;20435;-72
2022/01/31 08:44:30;;;;;;;3.70;0.70;;;4.40;99.90;;;;;;4972771;28;20415;-72
2022/01/31 08:46:55;;;;;;;1.77;0.60;;;4.40;99.90;;;;;;4973713;28;20208;-72
2022/01/31 08:49:21;;;;;;;0.60;0.60;;;4.40;99.90;;;;;;4973489;28;20184;-72
2022/01/31 08:51:47;;;;;;;1.53;0.60;;;4.50;99.90;;;;;;4973453;28;20207;-72
2022/01/31 08:54:16;;;;;;;0.70;0.70;;;4.50;99.90;;;;;;4972676;28;20291;-72
2022/01/31 08:56:45;;;;;;;2.50;1.07;;;4.60;99.90;;;;;;4973479;28;20200;-72
2022/01/31 08:59:15;;;;;;;0.70;0.70;;;4.70;99.90;;;;;;4973142;28;20424;-72
2022/01/31 09:01:43;;;;;;;3.67;1.07;;;4.70;99.90;;;;;;4973345;28;20480;-72
2022/01/31 09:04:11;;;;;;;3.07;1.93;;;4.80;99.90;;;;;;4972660;28;20402;-72
2022/01/31 09:06:38;;;;;;;4.97;1.20;;;4.90;99.90;;;;;;4973288;28;20401;-72
2022/01/31 09:09:08;;;;;;;2.23;1.07;;;5.00;99.90;;;;;;4973219;28;20482;-72
2022/01/31 09:11:36;;;;;;;1.50;1.33;;;5.10;99.90;;;;;;4973257;28;20493;-73
2022/01/31 09:14:02;;;;;;;1.30;1.20;;;5.30;99.90;;;;;;4972427;28;20857;-73
2022/01/31 09:16:28;;;;;;;0.80;0.80;;;5.70;99.90;;;;;;4971795;28;20472;-72
2022/01/31 09:18:53;;;;;;;2.73;1.40;;;6.10;99.90;;;;;;4971789;28;20433;-73
2022/01/31 09:21:19;;;;;;;1.10;1.00;;;6.20;99.90;;;;;;4972786;28;20281;-72
2022/01/31 09:23:51;;;;;;;1.17;1.07;;;6.30;99.90;;;;;;4972458;28;20197;-73
2022/01/31 09:26:18;;;;;;;1.60;1.50;;;6.50;99.90;;;;;;4972774;28;20201;-73
2022/01/31 09:28:44;;;;;;;2.40;0.80;;;6.70;99.90;;;;;;4972940;28;20426;-74
2022/01/31 09:31:09;;;;;;;1.40;0.90;;;6.80;99.90;;;;;;4972668;28;20507;-73
2022/01/31 09:33:35;;;;;;;2.43;1.03;;;6.70;99.90;;;;;;4972368;28;20810;-72
2022/01/31 09:36:00;;;;;;;2.63;1.20;;;6.60;99.90;;;;;;4972615;28;20190;-72
2022/01/31 09:38:26;;;;;;;2.67;1.23;;;6.50;99.90;;;;;;4971580;28;20649;-72
2022/01/31 09:40:53;;;;;;;1.27;0.70;;;6.60;99.90;;;;;;4971646;28;20279;-72
2022/01/31 09:48:33;;;;;;;3.50;0.80;;;6.90;99.90;;;;;;4972877;28;20479;-73
2022/01/31 09:51:01;;;;;;;4.47;1.67;;;6.90;99.90;;;;;;4972620;28;20516;-73
2022/01/31 09:53:27;;;;;;;1.33;1.10;;;6.70;99.90;;;;;;4971957;28;21109;-74
2022/01/31 09:55:53;;;;;;;6.23;1.40;;;6.60;99.90;;;;;;4972646;28;20484;-74
2022/01/31 09:58:19;;;;;;;1.80;1.10;;;6.40;99.90;;;;;;4971709;28;20419;-73
2022/01/31 10:00:45;;;;;;;3.70;1.30;;;6.20;99.90;;;;;;4972447;28;20396;-74
2022/01/31 10:03:11;;;;;;;4.53;1.17;;;6.10;99.90;;;;;;4973015;28;20388;-74
2022/01/31 10:05:37;;;;;;;1.00;0.90;;;6.00;99.90;;;;;;4972808;28;20183;-74
2022/01/31 10:08:12;;;;;;;1.00;1.00;;;5.90;99.90;;;;;;4972289;28;20179;-74
2022/01/31 10:10:40;;;;;;;3.10;0.80;;;5.80;99.90;;;;;;4972467;28;20428;-74
2022/01/31 10:19:01;;;;;;;4.57;1.90;;;5.80;99.90;;;;;;4972529;28;20391;-74
2022/01/31 10:21:27;;;;;;;3.97;1.53;;;5.90;99.90;;;;;;4972233;28;20440;-73
2022/01/31 10:23:53;;;;;;;2.87;1.67;;;5.80;99.90;;;;;;4971843;28;20479;-74
2022/01/31 10:26:32;;;;;;;8.50;2.07;;;5.90;99.90;;;;;;4972064;28;20188;-74
2022/01/31 10:29:15;;;;;;;9.10;1.43;;;5.90;99.90;;;;;;4972457;28;20641;-74
2022/01/31 10:31:57;;;;;;;2.33;1.20;;;5.90;99.90;;;;;;4972322;28;20548;-73
2022/01/31 10:34:25;;;;;;;4.97;1.50;;;5.90;99.90;;;;;;4971922;28;21041;-74
2022/01/31 10:36:52;;;;;;;3.13;1.60;;;5.90;99.90;;;;;;4972342;28;20775;-74
2022/01/31 10:45:44;;;;;;;3.97;1.37;;;6.10;99.90;;;;;;4971688;28;20476;-74
2022/01/31 10:54:09;;;;;;;2.60;1.53;;;6.00;99.90;;;;;;4971949;28;20440;-73
2022/01/31 10:56:42;;;;;;;3.13;1.20;;;6.10;99.90;;;;;;4972248;28;20406;-73
2022/01/31 10:59:24;;;;;;;3.47;1.00;;;6.10;99.90;;;;;;4972072;28;20389;-73
2022/01/31 11:01:52;;;;;;;2.70;1.10;;;6.10;99.90;;;;;;4971225;28;20428;-73
2022/01/31 11:04:18;;;;;;;7.63;1.43;;;6.10;99.90;;;;;;4971480;28;20413;-73
2022/01/31 11:06:46;;;;;;;3.37;1.13;;;6.00;99.90;;;;;;4972033;28;20467;-73
2022/01/31 11:09:14;;;;;;;2.43;0.97;;;5.90;99.90;;;;;;4973342;28;20428;-73
2022/01/31 11:11:42;;;;;;;3.80;1.40;;;5.90;99.90;;;;;;4975508;28;20953;-73
2022/01/31 11:14:09;;;;;;;1.97;1.40;;;5.90;99.90;;;;;;4974792;28;20615;-73
2022/01/31 11:16:36;;;;;;;2.80;1.10;;;6.00;99.90;;;;;;4975532;28;20472;-74
2022/01/31 11:19:06;;;;;;;4.90;1.60;;;6.10;99.90;;;;;;4975581;28;20788;-72
2022/01/31 11:21:35;;;;;;;4.20;1.20;;;6.20;99.90;;;;;;4975519;28;20454;-73
2022/01/31 11:24:03;;;;;;;6.73;1.20;;;6.40;99.90;;;;;;4974837;28;20415;-73
2022/01/31 11:26:40;;;;;;;2.50;1.03;;;6.50;99.90;;;;;;4975113;28;20772;-74
2022/01/31 11:29:07;;;;;;;1.27;1.00;;;6.50;99.90;;;;;;4975338;28;20434;-74
2022/01/31 11:31:36;;;;;;;5.77;1.20;;;6.40;99.90;;;;;;4975589;28;20463;-73
2022/01/31 11:34:04;;;;;;;5.17;1.60;;;6.30;99.90;;;;;;4975200;28;20487;-74
2022/01/31 11:36:32;;;;;;;8.50;2.17;;;6.20;99.90;;;;;;4975242;28;20415;-74
2022/01/31 11:38:59;;;;;;;6.17;2.80;;;6.20;99.90;;;;;;4974622;28;20496;-75
2022/01/31 11:41:25;;;;;;;2.60;0.97;;;6.20;99.90;;;;;;4974744;28;20528;-73
2022/01/31 11:43:59;;;;;;;2.73;1.00;;;6.00;99.90;;;;;;4974404;28;20419;-74
2022/01/31 11:46:25;;;;;;;4.53;1.00;;;5.90;99.90;;;;;;4974859;28;20476;-74
2022/01/31 11:48:52;;;;;;;1.50;1.10;;;5.70;99.90;;;;;;4974756;28;20419;-73
2022/01/31 11:51:20;;;;;;;2.90;0.90;;;5.70;99.90;;;;;;4975021;28;20204;-74
2022/01/31 11:53:45;;;;;;;2.27;1.00;;;5.70;99.90;;;;;;4974176;28;20464;-74
2022/01/31 11:56:22;;;;;;;2.80;1.20;;;5.70;99.90;;;;;;4974724;28;20420;-74
2022/01/31 11:58:50;;;;;;;0.80;0.77;;;5.60;99.90;;;;;;4974428;28;20251;-74
2022/01/31 12:01:18;;;;;;;2.90;1.00;;;5.60;99.90;;;;;;4974827;28;21001;-74
2022/01/31 12:03:54;;;;;;;2.60;1.13;;;5.60;99.90;;;;;;4973997;28;20477;-74
2022/01/31 12:06:26;;;;;;;1.60;0.80;;;5.50;99.90;;;;;;4974651;28;20480;-74
2022/01/31 12:08:54;;;;;;;3.27;1.50;;;5.50;99.90;;;;;;4973908;28;20502;-74
2022/01/31 12:11:28;;;;;;;10.00;1.70;;;5.50;99.90;;;;;;4974158;28;20420;-75
2022/01/31 12:13:59;;;;;;;1.07;1.00;;;5.40;99.90;;;;;;4973711;28;20464;-74
2022/01/31 12:22:03;;;;;;;6.97;1.03;;;5.50;99.90;;;;;;4973865;28;20430;-74
2022/01/31 12:24:38;;;;;;;3.13;1.10;;;5.50;99.90;;;;;;4973798;28;20413;-74
2022/01/31 12:27:11;;;;;;;7.07;1.50;;;5.60;99.90;;;;;;4973987;28;20403;-74
2022/01/31 12:29:42;;;;;;;5.13;1.73;;;5.60;99.90;;;;;;4973867;28;20972;-75
2022/01/31 12:32:13;;;;;;;3.83;1.73;;;5.50;99.90;;;;;;4973682;28;20464;-73
2022/01/31 12:34:44;;;;;;;3.20;1.33;;;5.40;99.90;;;;;;4973625;28;20465;-74
2022/01/31 12:37:19;;;;;;;2.60;1.00;;;5.40;99.90;;;;;;4972609;28;20425;-73
2022/01/31 12:39:58;;;;;;;3.67;2.00;;;5.40;99.90;;;;;;4973622;28;20486;-75
2022/01/31 12:45:08;;;;;;;2.60;1.40;;;5.50;99.90;;;;;;4954377;29;20810;-74
2022/01/31 12:47:34;;;;;;;3.70;1.27;;;5.40;99.90;;;;;;4954334;28;20429;-74
2022/01/31 12:50:20;;;;;;;2.57;1.33;;;5.40;99.90;;;;;;4954106;29;20409;-75
2022/01/31 12:52:45;;;;;;;3.70;0.70;;;5.40;99.90;;;;;;4953865;29;20227;-73
2022/01/31 12:55:12;;;;;;;3.33;1.00;;;5.40;99.90;;;;;;4954163;28;21069;-74
2022/01/31 12:57:52;;;;;;;1.40;1.13;;;5.30;99.90;;;;;;4954348;28;20192;-74
2022/01/31 13:00:32;;;;;;;2.47;1.13;;;5.30;99.90;;;;;;4954130;28;20408;-74
2022/01/31 13:02:58;;;;;;;5.33;1.53;;;5.30;99.90;;;;;;4953660;28;20426;-74
2022/01/31 13:05:37;;;;;;;2.93;1.17;;;5.30;99.90;;;;;;4954138;29;20936;-74
2022/01/31 13:08:19;;;;;;;11.13;1.43;;;5.30;99.90;;;;;;4954142;28;20277;-74
2022/01/31 13:10:45;;;;;;;0.97;0.80;;;5.30;99.90;;;;;;4953850;28;20830;-75
2022/01/31 13:13:11;;;;;;;7.97;2.60;;;5.30;99.90;;;;;;4952670;29;20421;-74
2022/01/31 13:15:37;;;;;;;1.17;1.07;;;5.20;99.90;;;;;;4954151;28;20243;-74
2022/01/31 13:18:07;;;;;;;6.43;1.50;;;5.20;99.90;;;;;;4954822;29;20886;-74
2022/01/31 13:20:34;;;;;;;1.60;0.97;;;5.20;99.90;;;;;;4955870;29;20607;-77
2022/01/31 13:23:01;;;;;;;4.93;1.30;;;5.10;99.90;;;;;;4960348;28;20433;-74
2022/01/31 13:25:27;;;;;;;7.00;2.50;;;5.10;99.90;;;;;;4957051;28;20425;-73
2022/01/31 13:27:54;;;;;;;5.07;1.70;;;5.10;99.90;;;;;;4953742;29;20404;-73
2022/01/31 13:30:28;;;;;;;5.63;2.20;;;5.10;99.90;;;;;;4953708;29;20412;-73
2022/01/31 13:32:54;;;;;;;1.93;1.83;;;5.10;99.90;;;;;;4964458;28;20441;-74
2022/01/31 13:35:23;;;;;;;7.00;1.70;;;5.20;99.90;;;;;;4971721;28;20475;-73
2022/01/31 13:37:55;;;;;;;5.20;3.97;;;5.20;99.90;;;;;;4972691;28;20413;-74
2022/01/31 13:40:23;;;;;;;2.37;1.20;;;5.40;99.90;;;;;;4973180;28;20413;-74
2022/01/31 13:43:21;;;;;;;1.73;1.20;;;5.40;99.90;;;;;;4972086;28;20421;-72
2022/01/31 13:48:52;;;;;;;5.93;1.40;;;5.40;99.90;;;;;;4972328;28;20429;-75
2022/01/31 13:51:27;;;;;;;2.50;0.87;;;5.50;99.90;;;;;;4972800;28;20409;-72
2022/01/31 13:53:53;;;;;;;3.90;1.43;;;5.60;99.90;;;;;;4972004;28;20523;-72
2022/01/31 13:56:19;;;;;;;4.90;1.43;;;5.60;99.90;;;;;;4972959;28;20426;-73
2022/01/31 13:59:00;;;;;;;4.67;1.30;;;5.60;99.90;;;;;;4972471;28;20427;-73
2022/01/31 14:01:26;;;;;;;3.20;1.40;;;5.60;99.90;;;;;;4972623;28;20855;-73
2022/01/31 14:03:52;;;;;;;2.90;1.27;;;5.60;99.90;;;;;;4972036;28;20514;-73
2022/01/31 14:06:19;;;;;;;1.30;0.80;;;5.60;99.90;;;;;;4972660;28;20179;-72
2022/01/31 14:08:57;;;;;;;2.87;1.03;;;5.50;99.90;;;;;;4972443;28;20495;-73
2022/01/31 14:11:25;;;;;;;5.80;1.10;;;5.50;99.90;;;;;;4972227;28;20446;-73
2022/01/31 14:13:53;;;;;;;3.27;1.10;;;5.40;99.90;;;;;;4971951;28;20500;-73
2022/01/31 14:16:24;;;;;;;5.97;1.40;;;5.30;99.90;;;;;;4972510;28;20448;-73
2022/01/31 14:18:51;;;;;;;1.60;0.87;;;5.20;99.90;;;;;;4972416;28;20413;-74
2022/01/31 14:21:18;;;;;;;3.80;1.07;;;5.20;99.90;;;;;;4972074;28;20494;-74
2022/01/31 14:23:47;;;;;;;3.43;0.90;;;5.20;99.90;;;;;;4971672;28;20895;-72
2022/01/31 14:26:16;;;;;;;6.83;1.50;;;5.20;99.90;;;;;;4972517;28;20988;-73
2022/01/31 14:28:44;;;;;;;0.90;0.90;;;5.20;99.90;;;;;;4972188;28;20792;-72
2022/01/31 14:31:12;;;;;;;2.30;1.30;;;5.20;99.90;;;;;;4972084;28;20478;-73
2022/01/31 14:33:47;;;;;;;3.40;0.77;;;5.20;99.90;;;;;;4971627;28;20559;-72
2022/01/31 14:36:16;;;;;;;2.93;1.27;;;5.30;99.90;;;;;;4972215;28;20419;-73
2022/01/31 14:39:07;;;;;;;3.37;0.80;;;5.30;99.90;;;;;;4963007;28;20421;-72
2022/01/31 14:41:52;;;;;;;0.73;0.70;;;5.30;99.90;;;;;;4953114;28;20407;-73
2022/01/31 14:47:20;;;;;;;5.40;1.30;;;5.20;99.90;;;;;;4975365;28;20438;-72
2022/01/31 14:49:48;;;;;;;3.90;1.00;;;5.20;99.90;;;;;;4972931;28;20441;-72
2022/01/31 14:52:14;;;;;;;4.50;1.33;;;5.10;99.90;;;;;;4969491;28;20443;-74
2022/01/31 14:54:42;;;;;;;6.63;1.17;;;5.00;99.90;;;;;;4975102;28;20917;-72
2022/01/31 14:57:09;;;;;;;2.57;1.03;;;4.90;99.90;;;;;;4974240;28;20921;-73
2022/01/31 14:59:35;;;;;;;4.73;1.57;;;4.80;99.90;;;;;;4959484;28;20424;-71
2022/01/31 15:02:00;;;;;;;12.33;1.50;;;4.70;99.90;;;;;;4974618;28;20473;-71
2022/01/31 15:04:27;;;;;;;1.77;1.00;;;4.60;99.90;;;;;;4969233;28;20423;-72
2022/01/31 15:06:53;;;;;;;2.43;1.13;;;4.40;99.90;;;;;;4956064;29;20193;-72
2022/01/31 15:09:19;;;;;;;4.67;1.30;;;4.30;99.90;;;;;;4955987;29;20479;-72
2022/01/31 15:11:46;;;;;;;4.30;1.03;;;4.20;99.90;;;;;;4955625;29;20205;-72
2022/01/31 15:14:12;;;;;;;5.10;1.40;;;4.10;99.90;;;;;;4955592;29;20212;-72
2022/01/31 15:16:41;;;;;;;11.10;1.17;;;4.10;99.90;;;;;;4968275;28;20405;-72
2022/01/31 15:19:06;;;;;;;3.20;1.10;;;4.00;99.90;;;;;;4994655;28;20396;-71
2022/01/31 15:21:34;;;;;;;7.00;1.53;;;4.00;99.90;;;;;;4994326;28;20919;-71
2022/01/31 15:24:03;;;;;;;3.50;1.60;;;4.00;99.90;;;;;;4994259;28;20262;-72
2022/01/31 15:26:29;;;;;;;7.40;1.53;;;3.90;99.90;;;;;;4993483;28;20426;-71
2022/01/31 15:28:56;;;;;;;6.13;1.00;;;3.90;99.90;;;;;;4994444;28;20927;-72
2022/01/31 15:31:22;;;;;;;8.00;2.20;;;3.90;99.90;;;;;;4984801;28;20440;-72
2022/01/31 15:33:49;;;;;;;3.43;1.30;;;3.90;99.90;;;;;;4965518;28;20490;-71
2022/01/31 15:36:16;;;;;;;3.80;1.43;;;3.90;99.90;;;;;;4971059;28;20180;-72
2022/01/31 15:38:42;;;;;;;2.40;1.27;;;3.80;99.90;;;;;;4959554;28;20499;-72
2022/01/31 15:41:09;;;;;;;6.70;1.60;;;3.80;99.90;;;;;;4961306;28;20946;-73
2022/01/31 15:43:36;;;;;;;4.20;1.77;;;3.80;99.90;;;;;;4974016;28;20450;-71
2022/01/31 15:46:04;;;;;;;2.50;1.17;;;3.80;99.90;;;;;;4974652;28;20899;-71
2022/01/31 15:48:31;;;;;;;6.40;2.37;;;3.80;99.90;;;;;;4973625;28;20451;-71
2022/01/31 15:50:56;;;;;;;3.23;1.27;;;3.90;99.90;;;;;;4974463;28;21079;-71
2022/01/31 15:53:22;;;;;;;8.20;2.00;;;3.90;99.90;;;;;;4970165;28;20411;-71
2022/01/31 15:55:48;;;;;;;4.03;1.60;;;3.90;99.90;;;;;;4959569;28;20186;-72
2022/01/31 15:58:15;;;;;;;5.60;1.30;;;3.90;99.90;;;;;;4961349;28;20261;-72
2022/01/31 16:00:47;;;;;;;6.03;2.30;;;3.90;99.90;;;;;;4954775;28;20192;-71
2022/01/31 16:03:15;;;;;;;5.83;1.93;;;3.90;99.90;;;;;;4954384;29;20449;-70
2022/01/31 16:05:42;;;;;;;6.00;1.80;;;3.90;99.90;;;;;;4954930;29;20435;-72
2022/01/31 16:08:09;;;;;;;4.33;1.93;;;3.90;99.90;;;;;;4955753;28;20463;-70
2022/01/31 16:10:35;;;;;;;5.17;1.50;;;3.90;99.90;;;;;;4974151;28;20455;-71
2022/01/31 16:13:05;;;;;;;6.10;1.20;;;3.90;99.90;;;;;;4973639;28;20877;-72
2022/01/31 16:15:32;;;;;;;2.70;1.30;;;3.90;99.90;;;;;;4974202;28;20204;-72
2022/01/31 16:17:58;;;;;;;5.27;2.13;;;3.80;99.90;;;;;;4968810;28;20414;-71
2022/01/31 16:20:23;;;;;;;5.03;1.93;;;3.90;99.90;;;;;;4967417;28;20497;-72
2022/01/31 16:22:49;;;;;;;6.00;1.47;;;3.90;99.90;;;;;;4970960;28;20452;-71
2022/01/31 16:25:15;;;;;;;2.03;1.00;;;3.90;99.90;;;;;;4972285;28;20203;-72
2022/01/31 16:27:44;;;;;;;4.10;1.37;;;4.00;99.90;;;;;;4971468;28;20665;-72
2022/01/31 16:30:12;;;;;;;3.93;1.70;;;3.90;99.90;;;;;;4968782;28;20442;-71
2022/01/31 16:32:38;;;;;;;5.57;1.47;;;3.90;99.90;;;;;;4964490;28;21052;-72
2022/01/31 16:35:04;;;;;;;4.53;1.87;;;4.00;99.90;;;;;;4972302;28;20562;-72
2022/01/31 16:37:30;;;;;;;7.03;1.93;;;4.10;99.90;;;;;;4971663;28;20246;-72
2022/01/31 16:39:57;;;;;;;3.47;1.10;;;4.00;99.90;;;;;;4972825;28;20395;-71
2022/01/31 16:42:23;;;;;;;4.33;1.27;;;4.10;99.90;;;;;;4973462;28;20513;-72
2022/01/31 16:44:50;;;;;;;7.67;1.87;;;4.10;99.90;;;;;;4959282;28;20416;-74
2022/01/31 16:47:16;;;;;;;10.87;1.23;;;4.10;99.90;;;;;;4954589;29;20395;-74
2022/01/31 16:49:43;;;;;;;6.03;1.03;;;4.10;99.90;;;;;;4954249;29;20800;-74
2022/01/31 16:52:09;;;;;;;7.20;1.40;;;4.10;99.90;;;;;;4954950;28;20693;-74
2022/01/31 16:54:35;;;;;;;6.33;2.20;;;4.10;99.90;;;;;;4968830;28;20470;-74
2022/01/31 16:57:01;;;;;;;5.90;2.27;;;4.10;99.90;;;;;;4969154;28;20188;-75
2022/01/31 16:59:28;;;;;;;9.23;2.07;;;4.10;99.90;;;;;;4960854;28;20241;-74
2022/01/31 17:01:53;;;;;;;3.40;1.43;;;4.20;99.90;;;;;;4953796;28;20256;-74
2022/01/31 17:04:21;;;;;;;3.37;1.70;;;4.10;99.90;;;;;;4953676;29;20408;-73
2022/01/31 17:06:47;;;;;;;5.63;1.90;;;4.20;99.90;;;;;;4954061;28;20188;-73
2022/01/31 17:09:13;;;;;;;6.73;1.40;;;4.10;99.90;;;;;;4962299;28;20995;-73
2022/01/31 17:11:39;;;;;;;2.90;1.47;;;4.10;99.90;;;;;;4955476;28;20522;-73
2022/01/31 17:14:08;;;;;;;3.43;1.87;;;4.20;99.90;;;;;;4958529;28;20438;-73
2022/01/31 17:16:34;;;;;;;9.60;1.60;;;4.20;99.90;;;;;;4960603;28;20177;-73
2022/01/31 17:19:05;;;;;;;6.47;2.10;;;4.20;99.90;;;;;;4962795;28;20432;-72
2022/01/31 17:21:32;;;;;;;3.87;1.70;;;4.30;99.90;;;;;;4955176;28;20415;-73
2022/01/31 17:23:57;;;;;;;10.80;2.40;;;4.30;99.90;;;;;;4965663;28;20439;-73
2022/01/31 17:26:23;;;;;;;6.10;1.77;;;4.30;99.90;;;;;;4973436;28;20424;-73
2022/01/31 17:28:50;;;;;;;7.77;1.87;;;4.30;99.90;;;;;;4973089;28;20666;-73
2022/01/31 17:31:16;;;;;;;6.17;2.03;;;4.30;99.90;;;;;;4972490;28;20246;-73
2022/01/31 17:33:42;;;;;;;8.27;1.70;;;4.30;99.90;;;;;;4969521;28;20511;-74
2022/01/31 17:36:10;;;;;;;4.00;1.53;;;4.30;99.90;;;;;;4973109;28;20683;-73
2022/01/31 17:38:36;;;;;;;5.83;1.43;;;4.30;99.90;;;;;;4973026;28;20869;-73
2022/01/31 17:41:02;;;;;;;11.37;1.50;;;4.30;99.90;;;;;;4973139;28;20414;-73
2022/01/31 17:43:27;;;;;;;4.47;1.67;;;4.30;99.90;;;;;;4973089;28;20411;-74
2022/01/31 17:45:53;;;;;;;5.53;1.40;;;4.30;99.90;;;;;;4962645;28;20429;-74
2022/01/31 17:48:19;;;;;;;11.83;2.23;;;4.40;99.90;;;;;;4953242;28;20184;-74
2022/01/31 17:50:45;;;;;;;2.73;0.90;;;4.40;99.90;;;;;;4954106;29;20413;-74
2022/01/31 17:53:12;;;;;;;2.90;1.10;;;4.40;99.90;;;;;;4952418;29;20412;-74
2022/01/31 17:55:38;;;;;;;5.40;1.47;;;4.40;99.90;;;;;;4971633;28;20441;-74
2022/01/31 17:58:04;;;;;;;3.70;1.30;;;4.40;99.90;;;;;;4973983;28;20424;-73
2022/01/31 18:00:30;;;;;;;5.43;1.93;;;4.30;99.90;;;;;;4955721;28;20180;-74
2022/01/31 18:02:56;;;;;;;7.53;1.53;;;4.30;99.90;;;;;;4968271;28;21001;-73
2022/01/31 18:05:22;;;;;;;10.13;1.33;;;4.30;99.90;;;;;;4968740;28;20432;-73
2022/01/31 18:07:48;;;;;;;6.83;1.93;;;4.30;99.90;;;;;;4970014;28;20196;-74